sensor_id;sensor_type;location;lat;lon;timestamp;pressure;altitude;pressure_sealevel;temperature;humidity
38022;BME280;23832;43.216;27.946;2023-04-29T00:01:22;100878.59;;;15.17;40.27
38022;BME280;23832;43.216;27.946;2023-04-29T00:03:25;100882.09;;;15.24;40.32
38022;BME280;23832;43.216;27.946;2023-04-29T00:05:31;100882.09;;;15.24;40.14
38022;BME280;23832;43.216;27.946;2023-04-29T00:07:33;100876.09;;;15.09;40.47
38022;BME280;23832;43.216;27.946;2023-04-29T00:09:35;100876.34;;;15.14;40.22
38022;BME280;23832;43.216;27.946;2023-04-29T00:11:39;100872.25;;;15.12;40.29
38022;BME280;23832;43.216;27.946;2023-04-29T00:13:41;100874.75;;;15.26;40.08
38022;BME280;23832;43.216;27.946;2023-04-29T00:15:43;100874.75;;;15.26;40.18
38022;BME280;23832;43.216;27.946;2023-04-29T00:17:46;100883.63;;;15.05;40.78
38022;BME280;23832;43.216;27.946;2023-04-29T00:19:48;100879.56;;;15.10;40.56
38022;BME280;23832;43.216;27.946;2023-04-29T00:21:51;100887.72;;;15.01;40.57
38022;BME280;23832;43.216;27.946;2023-04-29T00:23:53;100881.25;;;14.83;40.76
38022;BME280;23832;43.216;27.946;2023-04-29T00:25:55;100880.78;;;15.07;40.52
38022;BME280;23832;43.216;27.946;2023-04-29T00:27:59;100878.97;;;15.14;40.44
38022;BME280;23832;43.216;27.946;2023-04-29T00:30:01;100887.00;;;15.21;40.34
38022;BME280;23832;43.216;27.946;2023-04-29T00:32:04;100885.31;;;15.13;40.29
38022;BME280;23832;43.216;27.946;2023-04-29T00:34:06;100879.31;;;14.98;40.31
38022;BME280;23832;43.216;27.946;2023-04-29T00:36:08;100883.91;;;14.83;40.82
38022;BME280;23832;43.216;27.946;2023-04-29T00:38:17;100874.84;;;14.70;40.80
38022;BME280;23832;43.216;27.946;2023-04-29T00:40:20;100878.16;;;14.79;40.75
38022;BME280;23832;43.216;27.946;2023-04-29T00:42:22;100881.38;;;14.68;41.07
38022;BME280;23832;43.216;27.946;2023-04-29T00:44:26;100886.81;;;14.88;40.67
38022;BME280;23832;43.216;27.946;2023-04-29T00:46:28;100888.44;;;14.89;40.78
38022;BME280;23832;43.216;27.946;2023-04-29T00:48:29;100885.31;;;14.79;40.80
38022;BME280;23832;43.216;27.946;2023-04-29T00:50:32;100883.19;;;14.67;40.81
38022;BME280;23832;43.216;27.946;2023-04-29T00:52:34;100892.88;;;14.82;40.74
38022;BME280;23832;43.216;27.946;2023-04-29T00:54:39;100885.06;;;14.73;40.91
38022;BME280;23832;43.216;27.946;2023-04-29T00:56:41;100894.44;;;14.69;40.78
38022;BME280;23832;43.216;27.946;2023-04-29T00:58:46;100886.56;;;14.55;41.04
38022;BME280;23832;43.216;27.946;2023-04-29T01:00:52;100885.59;;;14.62;41.27
38022;BME280;23832;43.216;27.946;2023-04-29T01:02:55;100881.38;;;14.46;41.48
38022;BME280;23832;43.216;27.946;2023-04-29T01:04:58;100876.66;;;14.42;41.65
38022;BME280;23832;43.216;27.946;2023-04-29T01:07:03;100877.91;;;14.46;41.59
38022;BME280;23832;43.216;27.946;2023-04-29T01:09:11;100883.91;;;14.33;41.96
38022;BME280;23832;43.216;27.946;2023-04-29T01:11:15;100873.13;;;14.35;41.76
38022;BME280;23832;43.216;27.946;2023-04-29T01:13:22;100878.41;;;14.35;41.61
38022;BME280;23832;43.216;27.946;2023-04-29T01:15:31;100882.75;;;14.14;42.10
38022;BME280;23832;43.216;27.946;2023-04-29T01:17:38;100882.22;;;14.26;41.77
38022;BME280;23832;43.216;27.946;2023-04-29T01:19:43;100879.69;;;14.17;41.96
38022;BME280;23832;43.216;27.946;2023-04-29T01:21:46;100875.75;;;14.35;41.64
38022;BME280;23832;43.216;27.946;2023-04-29T01:23:51;100875.88;;;14.20;41.86
38022;BME280;23832;43.216;27.946;2023-04-29T01:25:56;100877.44;;;14.14;41.92
38022;BME280;23832;43.216;27.946;2023-04-29T01:28:01;100876.53;;;14.29;41.55
38022;BME280;23832;43.216;27.946;2023-04-29T01:30:08;100872.81;;;14.02;42.35
38022;BME280;23832;43.216;27.946;2023-04-29T01:32:12;100875.25;;;13.82;42.52
38022;BME280;23832;43.216;27.946;2023-04-29T01:34:17;100875.78;;;13.92;42.26
38022;BME280;23832;43.216;27.946;2023-04-29T01:36:22;100870.09;;;14.16;41.88
38022;BME280;23832;43.216;27.946;2023-04-29T01:38:29;100885.78;;;14.11;42.11
38022;BME280;23832;43.216;27.946;2023-04-29T01:40:36;100879.97;;;13.65;42.88
38022;BME280;23832;43.216;27.946;2023-04-29T01:42:41;100881.38;;;13.82;42.45
38022;BME280;23832;43.216;27.946;2023-04-29T01:44:45;100875.72;;;13.85;42.17
38022;BME280;23832;43.216;27.946;2023-04-29T01:46:50;100884.38;;;13.94;42.04
38022;BME280;23832;43.216;27.946;2023-04-29T01:48:53;100877.28;;;13.80;42.39
38022;BME280;23832;43.216;27.946;2023-04-29T01:50:56;100874.91;;;13.85;42.23
38022;BME280;23832;43.216;27.946;2023-04-29T01:52:58;100882.38;;;13.60;42.42
38022;BME280;23832;43.216;27.946;2023-04-29T01:55:01;100878.41;;;13.71;42.26
38022;BME280;23832;43.216;27.946;2023-04-29T01:57:04;100879.88;;;13.73;42.15
38022;BME280;23832;43.216;27.946;2023-04-29T01:59:07;100882.22;;;13.47;43.16
38022;BME280;23832;43.216;27.946;2023-04-29T02:01:10;100880.78;;;13.66;42.46
38022;BME280;23832;43.216;27.946;2023-04-29T02:03:12;100886.47;;;13.62;42.58
38022;BME280;23832;43.216;27.946;2023-04-29T02:05:17;100879.91;;;13.58;42.59
38022;BME280;23832;43.216;27.946;2023-04-29T02:07:20;100879.44;;;13.70;42.29
38022;BME280;23832;43.216;27.946;2023-04-29T02:09:21;100880.25;;;13.70;42.28
38022;BME280;23832;43.216;27.946;2023-04-29T02:11:23;100886.25;;;13.79;42.25
38022;BME280;23832;43.216;27.946;2023-04-29T02:13:27;100885.53;;;13.70;42.10
38022;BME280;23832;43.216;27.946;2023-04-29T02:15:29;100882.03;;;13.48;42.50
38022;BME280;23832;43.216;27.946;2023-04-29T02:17:32;100882.88;;;13.34;42.91
38022;BME280;23832;43.216;27.946;2023-04-29T02:19:34;100881.13;;;13.12;42.99
38022;BME280;23832;43.216;27.946;2023-04-29T02:21:36;100880.56;;;13.46;42.82
38022;BME280;23832;43.216;27.946;2023-04-29T02:23:39;100874.72;;;13.50;42.49
38022;BME280;23832;43.216;27.946;2023-04-29T02:25:40;100872.72;;;13.38;42.62
38022;BME280;23832;43.216;27.946;2023-04-29T02:27:43;100870.38;;;13.13;43.29
38022;BME280;23832;43.216;27.946;2023-04-29T02:29:47;100877.31;;;13.29;43.08
38022;BME280;23832;43.216;27.946;2023-04-29T02:31:50;100879.31;;;13.27;43.37
38022;BME280;23832;43.216;27.946;2023-04-29T02:33:52;100873.25;;;13.48;42.78
38022;BME280;23832;43.216;27.946;2023-04-29T02:35:54;100879.13;;;13.43;42.52
38022;BME280;23832;43.216;27.946;2023-04-29T02:37:56;100866.91;;;13.27;43.01
38022;BME280;23832;43.216;27.946;2023-04-29T02:39:59;100867.47;;;13.23;42.70
38022;BME280;23832;43.216;27.946;2023-04-29T02:42:02;100867.38;;;13.31;43.07
38022;BME280;23832;43.216;27.946;2023-04-29T02:44:04;100864.63;;;13.39;42.43
38022;BME280;23832;43.216;27.946;2023-04-29T02:46:08;100869.63;;;13.34;42.76
38022;BME280;23832;43.216;27.946;2023-04-29T02:48:10;100873.53;;;13.53;42.46
38022;BME280;23832;43.216;27.946;2023-04-29T02:50:12;100877.00;;;13.39;42.82
38022;BME280;23832;43.216;27.946;2023-04-29T02:52:14;100875.19;;;13.10;43.38
38022;BME280;23832;43.216;27.946;2023-04-29T02:54:18;100874.41;;;13.24;42.66
38022;BME280;23832;43.216;27.946;2023-04-29T02:56:20;100873.19;;;13.12;42.84
38022;BME280;23832;43.216;27.946;2023-04-29T02:58:22;100875.94;;;13.03;43.29
38022;BME280;23832;43.216;27.946;2023-04-29T03:00:27;100873.09;;;13.05;43.16
38022;BME280;23832;43.216;27.946;2023-04-29T03:02:30;100873.50;;;13.31;43.08
38022;BME280;23832;43.216;27.946;2023-04-29T03:04:32;100877.81;;;13.54;42.54
38022;BME280;23832;43.216;27.946;2023-04-29T03:06:35;100870.28;;;13.36;43.16
38022;BME280;23832;43.216;27.946;2023-04-29T03:08:37;100877.47;;;13.42;43.02
38022;BME280;23832;43.216;27.946;2023-04-29T03:10:39;100879.00;;;13.51;42.56
38022;BME280;23832;43.216;27.946;2023-04-29T03:12:41;100808.09;;;13.17;42.54
38022;BME280;23832;43.216;27.946;2023-04-29T03:14:44;100882.22;;;13.47;42.90
38022;BME280;23832;43.216;27.946;2023-04-29T03:16:46;100878.94;;;13.45;42.85
38022;BME280;23832;43.216;27.946;2023-04-29T03:18:50;100877.28;;;13.58;42.57
38022;BME280;23832;43.216;27.946;2023-04-29T03:20:52;100873.63;;;13.81;42.28
38022;BME280;23832;43.216;27.946;2023-04-29T03:22:54;100878.94;;;13.81;42.43
38022;BME280;23832;43.216;27.946;2023-04-29T03:24:57;100885.56;;;13.91;42.38
38022;BME280;23832;43.216;27.946;2023-04-29T03:26:59;100883.50;;;13.87;42.57
38022;BME280;23832;43.216;27.946;2023-04-29T03:29:01;100881.84;;;13.86;42.43
38022;BME280;23832;43.216;27.946;2023-04-29T03:31:03;100879.81;;;13.88;42.18
38022;BME280;23832;43.216;27.946;2023-04-29T03:33:05;100870.16;;;14.02;42.06
38022;BME280;23832;43.216;27.946;2023-04-29T03:35:09;100886.38;;;13.92;42.30
38022;BME280;23832;43.216;27.946;2023-04-29T03:37:12;100886.75;;;13.89;42.54
38022;BME280;23832;43.216;27.946;2023-04-29T03:39:15;100890.44;;;13.88;42.48
38022;BME280;23832;43.216;27.946;2023-04-29T03:41:17;100888.41;;;13.90;42.59
38022;BME280;23832;43.216;27.946;2023-04-29T03:43:20;100886.53;;;14.05;42.20
38022;BME280;23832;43.216;27.946;2023-04-29T03:45:22;100887.78;;;14.09;41.95
38022;BME280;23832;43.216;27.946;2023-04-29T03:47:24;100888.78;;;14.08;41.91
38022;BME280;23832;43.216;27.946;2023-04-29T03:49:26;100890.38;;;14.24;41.66
38022;BME280;23832;43.216;27.946;2023-04-29T03:51:29;100890.78;;;14.28;41.55
38022;BME280;23832;43.216;27.946;2023-04-29T03:53:32;100898.63;;;14.36;41.37
38022;BME280;23832;43.216;27.946;2023-04-29T03:55:33;100896.09;;;14.28;41.54
38022;BME280;23832;43.216;27.946;2023-04-29T03:57:35;100900.81;;;14.47;41.13
38022;BME280;23832;43.216;27.946;2023-04-29T03:59:37;100901.88;;;14.31;41.30
38022;BME280;23832;43.216;27.946;2023-04-29T04:01:40;100896.00;;;14.57;41.11
38022;BME280;23832;43.216;27.946;2023-04-29T04:03:42;100903.34;;;14.62;41.10
38022;BME280;23832;43.216;27.946;2023-04-29T04:05:44;100901.63;;;14.75;40.92
38022;BME280;23832;43.216;27.946;2023-04-29T04:07:48;100902.34;;;14.63;40.98
38022;BME280;23832;43.216;27.946;2023-04-29T04:09:50;100903.50;;;14.82;40.74
38022;BME280;23832;43.216;27.946;2023-04-29T04:11:52;100904.00;;;14.92;40.70
38022;BME280;23832;43.216;27.946;2023-04-29T04:13:54;100898.75;;;15.05;40.32
38022;BME280;23832;43.216;27.946;2023-04-29T04:15:56;100903.66;;;15.01;40.72
38022;BME280;23832;43.216;27.946;2023-04-29T04:17:58;100906.19;;;15.23;40.15
38022;BME280;23832;43.216;27.946;2023-04-29T04:20:00;100905.91;;;15.46;39.78
38022;BME280;23832;43.216;27.946;2023-04-29T04:22:02;100910.00;;;15.48;39.66
38022;BME280;23832;43.216;27.946;2023-04-29T04:24:05;100905.94;;;15.59;39.43
38022;BME280;23832;43.216;27.946;2023-04-29T04:26:07;100900.50;;;15.80;39.44
38022;BME280;23832;43.216;27.946;2023-04-29T04:28:09;100904.25;;;15.93;39.46
38022;BME280;23832;43.216;27.946;2023-04-29T04:30:11;100900.72;;;15.79;39.61
38022;BME280;23832;43.216;27.946;2023-04-29T04:32:13;100898.25;;;15.64;39.66
38022;BME280;23832;43.216;27.946;2023-04-29T04:34:15;100889.88;;;15.80;39.15
38022;BME280;23832;43.216;27.946;2023-04-29T04:36:17;100899.56;;;16.08;39.02
38022;BME280;23832;43.216;27.946;2023-04-29T04:38:20;100894.84;;;16.16;38.75
38022;BME280;23832;43.216;27.946;2023-04-29T04:40:27;100898.78;;;16.47;38.49
38022;BME280;23832;43.216;27.946;2023-04-29T04:42:29;100897.72;;;16.68;37.72
38022;BME280;23832;43.216;27.946;2023-04-29T04:44:31;100904.09;;;16.60;38.23
38022;BME280;23832;43.216;27.946;2023-04-29T04:46:32;100894.69;;;16.78;37.73
38022;BME280;23832;43.216;27.946;2023-04-29T04:48:36;100893.44;;;16.80;37.42
38022;BME280;23832;43.216;27.946;2023-04-29T04:50:39;100899.13;;;17.10;37.25
38022;BME280;23832;43.216;27.946;2023-04-29T04:52:40;100899.72;;;17.12;36.98
38022;BME280;23832;43.216;27.946;2023-04-29T04:54:43;100897.28;;;17.11;37.31
38022;BME280;23832;43.216;27.946;2023-04-29T04:56:47;100899.34;;;17.09;37.35
38022;BME280;23832;43.216;27.946;2023-04-29T04:58:51;100895.56;;;17.36;36.87
38022;BME280;23832;43.216;27.946;2023-04-29T05:00:53;100898.16;;;17.56;36.73
38022;BME280;23832;43.216;27.946;2023-04-29T05:02:55;100903.63;;;17.68;36.42
38022;BME280;23832;43.216;27.946;2023-04-29T05:04:57;100904.53;;;17.93;36.10
38022;BME280;23832;43.216;27.946;2023-04-29T05:07:01;100909.38;;;18.09;35.84
38022;BME280;23832;43.216;27.946;2023-04-29T05:09:03;100910.22;;;18.03;35.90
38022;BME280;23832;43.216;27.946;2023-04-29T05:11:05;100912.47;;;18.31;35.67
38022;BME280;23832;43.216;27.946;2023-04-29T05:13:09;100917.59;;;18.33;35.77
38022;BME280;23832;43.216;27.946;2023-04-29T05:15:11;100917.88;;;18.25;35.76
38022;BME280;23832;43.216;27.946;2023-04-29T05:17:14;100909.13;;;18.42;35.30
38022;BME280;23832;43.216;27.946;2023-04-29T05:19:15;100902.91;;;18.74;34.96
38022;BME280;23832;43.216;27.946;2023-04-29T05:21:17;100908.47;;;19.15;34.51
38022;BME280;23832;43.216;27.946;2023-04-29T05:23:20;100914.09;;;19.25;34.44
38022;BME280;23832;43.216;27.946;2023-04-29T05:25:23;100912.16;;;19.51;33.95
38022;BME280;23832;43.216;27.946;2023-04-29T05:27:25;100912.50;;;19.54;33.84
38022;BME280;23832;43.216;27.946;2023-04-29T05:29:28;100913.22;;;19.68;33.82
38022;BME280;23832;43.216;27.946;2023-04-29T05:31:30;100912.44;;;19.79;33.50
38022;BME280;23832;43.216;27.946;2023-04-29T05:33:32;100913.19;;;19.98;33.23
38022;BME280;23832;43.216;27.946;2023-04-29T05:35:35;100912.00;;;19.94;33.34
38022;BME280;23832;43.216;27.946;2023-04-29T05:37:37;100911.19;;;19.94;33.34
38022;BME280;23832;43.216;27.946;2023-04-29T05:39:39;100911.25;;;20.17;33.62
38022;BME280;23832;43.216;27.946;2023-04-29T05:41:40;100900.53;;;20.71;32.96
38022;BME280;23832;43.216;27.946;2023-04-29T05:43:42;100908.22;;;20.67;33.04
38022;BME280;23832;43.216;27.946;2023-04-29T05:45:46;100904.03;;;20.71;32.85
38022;BME280;23832;43.216;27.946;2023-04-29T05:47:48;100904.50;;;20.68;32.99
38022;BME280;23832;43.216;27.946;2023-04-29T05:49:51;100902.59;;;20.92;32.73
38022;BME280;23832;43.216;27.946;2023-04-29T05:51:52;100899.69;;;20.93;33.05
38022;BME280;23832;43.216;27.946;2023-04-29T05:53:54;100901.56;;;21.05;32.77
38022;BME280;23832;43.216;27.946;2023-04-29T05:56:03;100893.13;;;21.65;31.76
38022;BME280;23832;43.216;27.946;2023-04-29T05:58:07;100900.66;;;21.79;31.43
38022;BME280;23832;43.216;27.946;2023-04-29T06:00:09;100899.63;;;21.97;31.31
38022;BME280;23832;43.216;27.946;2023-04-29T06:02:13;100896.13;;;22.42;30.92
38022;BME280;23832;43.216;27.946;2023-04-29T06:04:16;100898.94;;;22.19;30.68
38022;BME280;23832;43.216;27.946;2023-04-29T06:06:18;100896.78;;;22.49;30.45
38022;BME280;23832;43.216;27.946;2023-04-29T06:08:21;100901.22;;;22.77;31.00
38022;BME280;23832;43.216;27.946;2023-04-29T06:10:23;100892.81;;;22.90;31.27
38022;BME280;23832;43.216;27.946;2023-04-29T06:12:26;100896.22;;;23.03;30.92
38022;BME280;23832;43.216;27.946;2023-04-29T06:14:27;100898.44;;;23.28;30.04
38022;BME280;23832;43.216;27.946;2023-04-29T06:16:29;100895.91;;;23.43;29.75
38022;BME280;23832;43.216;27.946;2023-04-29T06:18:33;100895.84;;;23.38;29.41
38022;BME280;23832;43.216;27.946;2023-04-29T06:20:35;100898.47;;;23.55;28.88
38022;BME280;23832;43.216;27.946;2023-04-29T06:22:37;100893.59;;;23.30;28.54
38022;BME280;23832;43.216;27.946;2023-04-29T06:24:39;100898.53;;;23.38;28.87
38022;BME280;23832;43.216;27.946;2023-04-29T06:26:41;100884.38;;;23.69;28.76
38022;BME280;23832;43.216;27.946;2023-04-29T06:28:43;100887.31;;;23.95;28.57
38022;BME280;23832;43.216;27.946;2023-04-29T06:30:45;100893.72;;;24.53;27.83
38022;BME280;23832;43.216;27.946;2023-04-29T06:32:47;100885.66;;;24.53;27.88
38022;BME280;23832;43.216;27.946;2023-04-29T06:34:51;100920.84;;;24.73;27.67
38022;BME280;23832;43.216;27.946;2023-04-29T06:36:53;100888.81;;;25.34;27.25
38022;BME280;23832;43.216;27.946;2023-04-29T06:38:55;100895.00;;;25.30;27.41
38022;BME280;23832;43.216;27.946;2023-04-29T06:40:57;100895.06;;;24.92;26.72
38022;BME280;23832;43.216;27.946;2023-04-29T06:43:00;100893.66;;;25.27;26.17
38022;BME280;23832;43.216;27.946;2023-04-29T06:45:04;100897.19;;;25.43;25.97
38022;BME280;23832;43.216;27.946;2023-04-29T06:47:06;100897.88;;;26.01;25.51
38022;BME280;23832;43.216;27.946;2023-04-29T06:49:09;100886.53;;;26.19;25.13
38022;BME280;23832;43.216;27.946;2023-04-29T06:51:13;100888.03;;;25.44;25.62
38022;BME280;23832;43.216;27.946;2023-04-29T06:53:15;100878.97;;;25.96;25.33
38022;BME280;23832;43.216;27.946;2023-04-29T06:55:17;100885.75;;;26.54;24.40
38022;BME280;23832;43.216;27.946;2023-04-29T06:57:20;100885.19;;;26.63;24.76
38022;BME280;23832;43.216;27.946;2023-04-29T06:59:22;100883.28;;;26.22;24.64
38022;BME280;23832;43.216;27.946;2023-04-29T07:01:24;100889.47;;;26.74;24.36
38022;BME280;23832;43.216;27.946;2023-04-29T07:03:27;100888.16;;;26.71;24.45
38022;BME280;23832;43.216;27.946;2023-04-29T07:05:29;100889.00;;;26.46;24.73
38022;BME280;23832;43.216;27.946;2023-04-29T07:07:33;100886.25;;;26.67;24.66
38022;BME280;23832;43.216;27.946;2023-04-29T07:09:34;100887.31;;;26.76;24.59
38022;BME280;23832;43.216;27.946;2023-04-29T07:11:36;100894.53;;;27.01;24.06
38022;BME280;23832;43.216;27.946;2023-04-29T07:13:38;100885.09;;;26.98;23.96
38022;BME280;23832;43.216;27.946;2023-04-29T07:15:40;100890.66;;;27.32;23.88
38022;BME280;23832;43.216;27.946;2023-04-29T07:17:42;100885.91;;;26.99;23.60
38022;BME280;23832;43.216;27.946;2023-04-29T07:19:44;100887.91;;;27.37;23.47
38022;BME280;23832;43.216;27.946;2023-04-29T07:21:46;100883.38;;;27.28;23.19
38022;BME280;23832;43.216;27.946;2023-04-29T07:23:49;100887.78;;;27.58;23.18
38022;BME280;23832;43.216;27.946;2023-04-29T07:25:51;100886.25;;;27.47;23.24
38022;BME280;23832;43.216;27.946;2023-04-29T07:27:53;100887.88;;;27.92;22.90
38022;BME280;23832;43.216;27.946;2023-04-29T07:29:55;100888.13;;;28.30;22.83
38022;BME280;23832;43.216;27.946;2023-04-29T07:31:58;100885.13;;;28.84;22.17
38022;BME280;23832;43.216;27.946;2023-04-29T07:34:00;100881.47;;;29.42;21.94
38022;BME280;23832;43.216;27.946;2023-04-29T07:36:01;100881.41;;;29.47;21.91
38022;BME280;23832;43.216;27.946;2023-04-29T07:38:03;100880.84;;;29.07;22.12
38022;BME280;23832;43.216;27.946;2023-04-29T07:40:07;100875.94;;;29.52;22.10
38022;BME280;23832;43.216;27.946;2023-04-29T07:42:12;100879.13;;;29.91;21.48
38022;BME280;23832;43.216;27.946;2023-04-29T07:44:14;100885.00;;;29.99;21.32
38022;BME280;23832;43.216;27.946;2023-04-29T07:46:16;100874.84;;;30.04;21.07
38022;BME280;23832;43.216;27.946;2023-04-29T07:48:18;100870.84;;;29.83;21.06
38022;BME280;23832;43.216;27.946;2023-04-29T07:50:20;100874.63;;;29.68;21.13
38022;BME280;23832;43.216;27.946;2023-04-29T07:52:22;100872.84;;;30.42;20.58
38022;BME280;23832;43.216;27.946;2023-04-29T07:54:26;100868.38;;;30.19;21.20
38022;BME280;23832;43.216;27.946;2023-04-29T07:56:29;100866.41;;;30.38;20.65
38022;BME280;23832;43.216;27.946;2023-04-29T07:58:31;100877.09;;;30.62;20.40
38022;BME280;23832;43.216;27.946;2023-04-29T08:00:33;100865.50;;;30.43;20.41
38022;BME280;23832;43.216;27.946;2023-04-29T08:02:35;100852.34;;;30.77;20.23
38022;BME280;23832;43.216;27.946;2023-04-29T08:04:38;100859.09;;;30.80;20.44
38022;BME280;23832;43.216;27.946;2023-04-29T08:06:40;100867.97;;;31.13;20.19
38022;BME280;23832;43.216;27.946;2023-04-29T08:08:42;100865.09;;;31.82;19.65
38022;BME280;23832;43.216;27.946;2023-04-29T08:10:44;100863.63;;;31.62;20.27
38022;BME280;23832;43.216;27.946;2023-04-29T08:12:48;100864.34;;;31.90;19.84
38022;BME280;23832;43.216;27.946;2023-04-29T08:14:49;100857.38;;;32.06;20.01
38022;BME280;23832;43.216;27.946;2023-04-29T08:16:51;100857.19;;;32.56;19.25
38022;BME280;23832;43.216;27.946;2023-04-29T08:18:54;100858.97;;;32.61;19.50
38022;BME280;23832;43.216;27.946;2023-04-29T08:20:56;100857.75;;;33.50;18.83
38022;BME280;23832;43.216;27.946;2023-04-29T08:22:58;100852.13;;;33.81;18.90
38022;BME280;23832;43.216;27.946;2023-04-29T08:25:00;100854.22;;;33.58;18.93
38022;BME280;23832;43.216;27.946;2023-04-29T08:27:02;100839.09;;;33.60;18.70
38022;BME280;23832;43.216;27.946;2023-04-29T08:29:06;100849.41;;;32.72;19.48
38022;BME280;23832;43.216;27.946;2023-04-29T08:31:15;100846.75;;;32.98;18.94
38022;BME280;23832;43.216;27.946;2023-04-29T08:33:17;100842.72;;;32.87;19.18
38022;BME280;23832;43.216;27.946;2023-04-29T08:35:19;100838.59;;;33.32;18.93
38022;BME280;23832;43.216;27.946;2023-04-29T08:37:21;100839.91;;;33.61;18.51
38022;BME280;23832;43.216;27.946;2023-04-29T08:39:23;100837.28;;;33.04;19.16
38022;BME280;23832;43.216;27.946;2023-04-29T08:41:25;100844.09;;;33.41;18.97
38022;BME280;23832;43.216;27.946;2023-04-29T08:43:27;100830.63;;;34.35;18.36
38022;BME280;23832;43.216;27.946;2023-04-29T08:45:31;100835.03;;;35.37;18.36
38022;BME280;23832;43.216;27.946;2023-04-29T08:47:33;100839.97;;;35.22;18.28
38022;BME280;23832;43.216;27.946;2023-04-29T08:49:36;100833.38;;;35.23;18.56
38022;BME280;23832;43.216;27.946;2023-04-29T08:51:39;100833.56;;;34.59;19.02
38022;BME280;23832;43.216;27.946;2023-04-29T08:53:48;100824.09;;;35.16;18.13
38022;BME280;23832;43.216;27.946;2023-04-29T08:55:49;100821.16;;;35.42;17.57
38022;BME280;23832;43.216;27.946;2023-04-29T08:57:52;100822.72;;;35.22;17.88
38022;BME280;23832;43.216;27.946;2023-04-29T08:59:56;100817.53;;;35.29;17.26
38022;BME280;23832;43.216;27.946;2023-04-29T09:02:01;100817.66;;;34.82;17.91
38022;BME280;23832;43.216;27.946;2023-04-29T09:04:08;100817.06;;;35.48;17.30
38022;BME280;23832;43.216;27.946;2023-04-29T09:06:13;100808.50;;;34.02;17.86
38022;BME280;23832;43.216;27.946;2023-04-29T09:08:15;100797.75;;;35.03;17.53
38022;BME280;23832;43.216;27.946;2023-04-29T09:10:17;100808.25;;;34.71;17.32
38022;BME280;23832;43.216;27.946;2023-04-29T09:12:19;100806.09;;;35.81;17.09
38022;BME280;23832;43.216;27.946;2023-04-29T09:14:21;100807.69;;;36.27;16.78
38022;BME280;23832;43.216;27.946;2023-04-29T09:16:24;100792.81;;;35.17;17.45
38022;BME280;23832;43.216;27.946;2023-04-29T09:18:43;100804.22;;;35.94;17.13
38022;BME280;23832;43.216;27.946;2023-04-29T09:20:50;100811.44;;;36.10;16.77
38022;BME280;23832;43.216;27.946;2023-04-29T09:22:52;100801.41;;;36.27;16.77
38022;BME280;23832;43.216;27.946;2023-04-29T09:25:10;100796.72;;;36.27;16.91
38022;BME280;23832;43.216;27.946;2023-04-29T09:27:25;100753.50;;;34.92;16.80
38022;BME280;23832;43.216;27.946;2023-04-29T09:29:27;100794.06;;;36.19;16.72
38022;BME280;23832;43.216;27.946;2023-04-29T09:31:30;100745.50;;;35.74;16.38
38022;BME280;23832;43.216;27.946;2023-04-29T09:38:11;100785.84;;;36.80;15.99
38022;BME280;23832;43.216;27.946;2023-04-29T09:40:26;100780.78;;;35.51;16.94
38022;BME280;23832;43.216;27.946;2023-04-29T09:42:30;100780.16;;;35.78;17.04
38022;BME280;23832;43.216;27.946;2023-04-29T09:44:42;100773.47;;;36.13;16.53
38022;BME280;23832;43.216;27.946;2023-04-29T09:46:46;100762.06;;;36.47;16.25
38022;BME280;23832;43.216;27.946;2023-04-29T09:48:55;100766.88;;;36.62;16.16
38022;BME280;23832;43.216;27.946;2023-04-29T09:50:58;100759.91;;;36.53;16.06
38022;BME280;23832;43.216;27.946;2023-04-29T09:53:02;100755.53;;;36.64;15.99
38022;BME280;23832;43.216;27.946;2023-04-29T09:55:06;100754.31;;;37.42;15.84
38022;BME280;23832;43.216;27.946;2023-04-29T09:57:09;100742.00;;;35.40;17.21
38022;BME280;23832;43.216;27.946;2023-04-29T09:59:11;100747.06;;;34.96;16.86
38022;BME280;23832;43.216;27.946;2023-04-29T10:01:14;100747.44;;;36.31;16.33
38022;BME280;23832;43.216;27.946;2023-04-29T10:03:20;100748.66;;;37.50;15.61
38022;BME280;23832;43.216;27.946;2023-04-29T10:05:24;100746.44;;;37.00;16.04
38022;BME280;23832;43.216;27.946;2023-04-29T10:07:30;100741.59;;;35.96;17.01
38022;BME280;23832;43.216;27.946;2023-04-29T10:09:34;100757.94;;;36.78;16.36
38022;BME280;23832;43.216;27.946;2023-04-29T10:11:45;100739.00;;;36.36;16.68
38022;BME280;23832;43.216;27.946;2023-04-29T10:13:47;100736.69;;;36.38;16.67
38022;BME280;23832;43.216;27.946;2023-04-29T10:15:54;100727.19;;;37.00;15.94
38022;BME280;23832;43.216;27.946;2023-04-29T10:18:02;100724.34;;;36.44;15.96
38022;BME280;23832;43.216;27.946;2023-04-29T10:20:12;100730.50;;;35.26;16.53
38022;BME280;23832;43.216;27.946;2023-04-29T10:22:16;100720.50;;;34.88;16.79
38022;BME280;23832;43.216;27.946;2023-04-29T10:24:20;100725.81;;;35.47;16.52
38022;BME280;23832;43.216;27.946;2023-04-29T10:26:22;100730.34;;;34.60;16.85
38022;BME280;23832;43.216;27.946;2023-04-29T10:28:29;100719.16;;;35.15;16.30
38022;BME280;23832;43.216;27.946;2023-04-29T10:30:31;100716.41;;;34.53;17.03
38022;BME280;23832;43.216;27.946;2023-04-29T10:32:34;100716.78;;;34.04;16.96
38022;BME280;23832;43.216;27.946;2023-04-29T10:34:37;100718.63;;;34.80;16.68
38022;BME280;23832;43.216;27.946;2023-04-29T10:36:42;100705.38;;;33.47;17.48
38022;BME280;23832;43.216;27.946;2023-04-29T10:38:45;100704.72;;;33.15;17.82
38022;BME280;23832;43.216;27.946;2023-04-29T10:40:49;100705.41;;;34.23;17.50